Latest Weather Observations for Roma

IDQ60801

Issued at 8:32 am EST Monday 3 October 2022 (issued every 10 minutes, with the page automatically refreshed every 10 minutes)

About weather observations | Map of weather stations | Latest weather observations for QLD | Other Formats
Station Details ID: 043091 Name: ROMA AIRPORT Lat: -26.55 Lon: 148.77 Height: 307.38 m
Data from the previous 72 hours. | See also: Recent months at Roma
Date/Time
EST
Temp
°C
App
Temp
°C
Dew
Point
°C
Rel
Hum
%
Delta-T
°C
Wind Press
QNH
hPa
Press
MSL
hPa
Rain since
9am
mm
Dir  Spd
km/h
Gust
km/h
Spd
kts
Gust
kts
03/08:30am 15.9 14.1 13.2 84 1.5 NNE 15 19 8 10 1020.2 1019.0 0.0
03/08:00am 14.7 12.9 13.2 91 0.8 NNE 15 19 8 10 1020.1 1018.9 0.0
03/07:30am 14.1 11.8 13.0 93 0.6 NNE 17 22 9 12 1019.8 1018.6 0.0
03/07:00am 13.4 12.3 13.2 99 0.1 NNE 11 15 6 8 1019.3 1018.1 0.0
03/06:30am 11.7 11.0 11.5 99 0.1 NNE 6 7 3 4 1018.9 1017.7 0.0
03/06:16am 9.8 8.6 9.5 98 0.2 N 6 9 3 5 1018.7 1017.5 0.0
03/06:00am 9.4 9.2 9.1 98 0.1 CALM 0 0 0 0 1018.5 1017.2 0.0
03/05:51am 8.0 7.4 7.2 95 0.4 CALM 0 0 0 0 1018.3 1017.0 0.0
03/05:30am 9.5 9.3 9.2 98 0.2 CALM 0 0 0 0 1018.0 1016.7 0.0
03/05:00am 10.2 10.2 9.9 98 0.2 CALM 0 0 0 0 1017.8 1016.5 0.0
03/04:30am 10.1 10.1 9.8 98 0.2 CALM 0 0 0 0 1017.5 1016.2 0.0
03/04:16am 10.0 9.9 9.5 97 0.3 CALM 0 0 0 0 1017.5 1016.2 0.0
03/04:00am 10.1 10.0 9.3 95 0.4 CALM 0 0 0 0 1017.5 1016.2 0.0
03/03:48am 10.5 10.6 10.0 97 0.3 CALM 0 0 0 0 1017.5 1016.2 0.0
03/03:30am 10.4 10.4 9.9 97 0.3 CALM 0 0 0 0 1017.3 1016.0 0.0
03/03:06am 10.7 10.5 9.0 89 0.9 CALM 0 6 0 3 1017.2 1015.9 0.0
03/03:00am 11.6 11.5 10.8 95 0.4 NNE 2 6 1 3 1017.1 1015.8 0.0
03/02:30am 11.0 10.0 10.2 95 0.4 NNE 6 7 3 4 1016.8 1015.6 0.0
03/02:00am 11.0 9.9 10.1 94 0.5 ENE 6 7 3 4 1017.2 1015.9 0.0
03/01:30am 11.0 9.9 9.9 93 0.6 SE 6 7 3 4 1017.3 1016.0 0.0
03/01:00am 11.0 11.1 10.1 94 0.5 CALM 0 6 0 3 1017.5 1016.2 0.0
03/12:30am 12.3 11.5 10.9 91 0.7 NNE 6 6 3 3 1017.6 1016.3 0.0
03/12:00am 11.3 10.9 9.7 90 0.8 ENE 2 6 1 3 1018.0 1016.7 0.0
 
Date/Time
EST
Temp
°C
App
Temp
°C
Dew
Point
°C
Rel
Hum
%
Delta-T
°C
Wind Press
QNH
hPa
Press
MSL
hPa
Rain since
9am
mm
Dir  Spd
km/h
Gust
km/h
Spd
kts
Gust
kts
02/11:30pm 12.5 10.8 9.9 84 1.4 SE 9 9 5 5 1017.8 1016.5 0.0
02/11:00pm 12.5 11.3 9.7 83 1.4 ESE 6 9 3 5 1017.7 1016.4 0.0
02/10:30pm 13.7 12.6 10.5 81 1.7 ENE 7 9 4 5 1017.6 1016.3 0.0
02/10:00pm 14.3 13.3 10.3 77 2.1 ENE 6 7 3 4 1017.4 1016.1 0.0
02/09:30pm 15.4 13.1 10.4 72 2.7 SSE 13 17 7 9 1017.1 1015.8 0.0
02/09:00pm 14.5 12.2 10.3 76 2.2 SSE 13 17 7 9 1016.6 1015.4 0.0
02/08:30pm 15.4 13.4 10.2 71 2.8 SSE 11 13 6 7 1016.4 1015.2 0.0
02/08:00pm 16.3 14.3 10.2 67 3.3 SE 11 13 6 7 1015.9 1014.7 0.0
02/07:30pm 16.9 14.9 10.3 65 3.6 SE 11 15 6 8 1015.5 1014.2 0.0
02/07:00pm 18.1 15.9 10.7 62 4.0 SE 13 17 7 9 1015.0 1013.7 0.0
02/06:30pm 18.0 16.1 10.6 62 4.0 SE 11 15 6 8 1014.6 1013.3 0.0
02/06:00pm 20.1 17.1 10.5 54 5.3 SE 17 20 9 11 1013.8 1012.5 0.0
02/05:30pm 21.5 18.1 10.6 50 6.1 SE 19 28 10 15 1013.3 1012.1 0.0
02/05:00pm 23.4 20.2 10.1 43 7.4 SSE 17 24 9 13 1012.7 1011.4 0.0
02/04:30pm 23.5 20.1 7.6 36 8.5 S 15 26 8 14 1012.5 1011.2 0.0
02/04:00pm 23.8 19.8 8.2 37 8.4 SSW 19 24 10 13 1012.2 1010.9 0.0
02/03:30pm 23.6 19.9 8.1 37 8.3 S 17 24 9 13 1012.3 1011.0 0.0
02/03:00pm 24.1 20.3 8.9 38 8.3 S 19 26 10 14 1012.0 1010.7 0.0
02/02:30pm 25.3 21.1 7.4 32 9.6 SW 19 26 10 14 1012.2 1010.9 0.0
02/02:00pm 24.6 21.0 8.5 36 8.8 SW 17 24 9 13 1012.5 1011.2 0.0
02/01:30pm 23.8 20.7 9.0 39 8.1 SW 15 20 8 11 1012.9 1011.6 0.0
02/01:00pm 24.4 21.6 11.4 44 7.4 SSW 17 22 9 12 1013.2 1012.0 0.0
02/12:30pm 24.6 22.4 10.8 42 7.8 SW 13 24 7 13 1013.4 1012.2 0.0
02/12:00pm 23.5 21.7 10.9 45 7.1 SW 11 19 6 10 1014.0 1012.7 0.0
02/11:30am 22.5 22.6 13.8 58 5.1 NW 6 11 3 6 1014.6 1013.3 0.0
02/11:00am 22.7 21.7 13.5 56 5.4 NNW 11 17 6 9 1014.8 1013.5 0.0
02/10:30am 21.7 20.7 13.3 59 4.9 N 11 15 6 8 1015.1 1013.8 0.0
02/10:00am 21.8 20.9 13.7 60 4.8 NNW 11 19 6 10 1015.3 1014.0 0.0
02/09:30am 20.6 21.2 14.3 67 3.7 NE 4 11 2 6 1015.7 1014.4 0.0
02/09:00am 19.3 18.8 13.9 71 3.1 NNE 9 15 5 8 1015.7 1014.4 1.2
02/08:30am 18.4 18.1 14.5 78 2.3 NNE 9 15 5 8 1015.6 1014.3 1.2
02/08:00am 16.8 16.8 14.1 84 1.6 N 7 11 4 6 1015.8 1014.6 1.2
02/07:30am 15.4 14.8 13.4 88 1.1 N 9 9 5 5 1015.6 1014.3 1.2
02/07:00am 15.2 16.4 13.9 92 0.7 CALM 0 0 0 0 1015.3 1014.0 1.2
02/06:30am 13.4 14.2 12.6 95 0.4 CALM 0 0 0 0 1015.1 1013.8 1.2
02/06:00am 13.2 13.2 12.4 95 0.4 ESE 4 7 2 4 1014.8 1013.5 1.2
02/05:30am 13.3 14.1 12.4 94 0.5 CALM 0 0 0 0 1014.7 1013.4 1.0
02/05:00am 13.4 13.8 12.5 94 0.5 NNE 2 7 1 4 1014.4 1013.1 1.0
02/04:30am 13.6 13.2 12.3 92 0.7 S 6 7 3 4 1014.2 1012.9 1.0
02/04:00am 13.7 12.9 12.8 94 0.5 ESE 9 11 5 6 1014.1 1012.8 1.0
02/03:30am 14.0 14.0 12.4 90 0.9 SE 4 9 2 5 1014.0 1012.7 1.0
02/03:00am 14.0 13.0 12.4 90 0.9 E 9 11 5 6 1013.7 1012.4 1.0
02/02:30am 14.0 13.0 12.2 89 1.0 E 9 11 5 6 1014.0 1012.7 1.0
02/02:00am 14.0 12.6 12.2 89 1.0 S 11 13 6 7 1014.1 1012.8 1.0
02/01:30am 14.4 13.0 12.3 87 1.2 SSW 11 15 6 8 1014.8 1013.5 1.0
02/01:00am 14.5 13.1 12.2 86 1.3 SW 11 17 6 9 1014.6 1013.3 1.0
02/12:30am 14.7 14.2 12.2 85 1.4 S 6 9 3 5 1014.4 1013.1 1.0
02/12:00am 14.9 12.9 11.5 80 1.9 SE 13 19 7 10 1014.9 1013.6 0.6
 
Date/Time
EST
Temp
°C
App
Temp
°C
Dew
Point
°C
Rel
Hum
%
Delta-T
°C
Wind Press
QNH
hPa
Press
MSL
hPa
Rain since
9am
mm
Dir  Spd
km/h
Gust
km/h
Spd
kts
Gust
kts
01/11:30pm 15.0 11.8 11.4 79 2.0 SSE 19 22 10 12 1014.9 1013.6 0.6
01/11:00pm 15.6 14.7 11.4 76 2.3 W 7 15 4 8 1015.1 1013.8 0.0
01/10:30pm 14.2 14.7 11.5 84 1.5 CALM 0 6 0 3 1014.9 1013.6 0.0
01/10:00pm 14.6 13.8 11.7 83 1.6 N 7 9 4 5 1014.6 1013.3 0.0
01/09:30pm 15.8 15.4 12.5 81 1.8 N 6 9 3 5 1014.7 1013.4 0.0
01/09:00pm 16.2 15.3 12.6 79 2.0 N 9 9 5 5 1014.6 1013.3 0.0
01/08:30pm 17.0 17.5 11.7 71 2.9 CALM 0 0 0 0 1014.5 1013.2 0.0
01/08:00pm 18.7 19.1 11.3 62 4.1 CALM 0 0 0 0 1014.2 1012.9 0.0
01/07:30pm 19.3 18.2 10.0 55 5.0 S 6 7 3 4 1014.1 1012.8 0.0
01/07:00pm 19.8 19.1 10.0 53 5.3 SSE 4 6 2 3 1013.7 1012.4 0.0
01/06:30pm 20.1 19.8 10.2 53 5.4 S 2 7 1 4 1013.7 1012.4 0.0
01/06:00pm 21.5 20.5 10.3 49 6.2 SW 6 7 3 4 1013.4 1012.2 0.0
01/05:30pm 22.5 21.4 10.0 45 6.9 SSW 6 7 3 4 1013.2 1012.0 0.0
01/05:00pm 24.0 22.2 8.0 36 8.6 S 7 11 4 6 1013.0 1011.8 0.0
01/04:30pm 23.6 21.6 8.5 38 8.2 SSW 9 13 5 7 1012.9 1011.6 0.0
01/04:00pm 24.0 20.9 7.2 34 8.9 SSW 13 17 7 9 1012.9 1011.6 0.0
01/03:30pm 24.6 21.9 9.0 37 8.6 SW 13 20 7 11 1012.9 1011.6 0.0
01/03:00pm 25.0 22.4 7.6 33 9.3 WSW 11 20 6 11 1012.9 1011.6 0.0
01/02:30pm 25.3 22.2 8.7 35 9.1 WSW 15 22 8 12 1013.2 1012.0 0.0
01/02:00pm 24.9 22.5 8.8 36 8.8 W 11 19 6 10 1013.8 1012.5 0.0
01/01:30pm 24.9 21.7 8.4 35 9.0 W 15 22 8 12 1014.3 1013.0 0.0
01/01:00pm 24.4 21.6 8.4 36 8.7 WNW 13 20 7 11 1015.0 1013.7 0.0
01/12:30pm 24.9 22.8 9.6 38 8.5 SSW 11 20 6 11 1015.4 1014.1 0.0
01/12:00pm 24.5 22.0 8.0 35 8.9 W 11 19 6 10 1015.9 1014.7 0.0
01/11:30am 23.6 21.0 7.7 36 8.5 W 11 20 6 11 1016.5 1015.3 0.0
01/11:00am 23.8 23.5 10.1 42 7.6 ESE 2 9 1 5 1017.1 1015.8 0.0
01/10:30am 22.9 22.4 11.9 50 6.3 NW 6 11 3 6 1017.3 1016.0 0.0
01/10:00am 21.3 20.8 11.9 55 5.3 NNW 6 11 3 6 1017.7 1016.4 0.0
01/09:30am 20.0 19.9 12.0 60 4.5 NNW 4 9 2 5 1018.1 1017.3 0.0
01/09:00am 18.8 18.0 12.8 68 3.4 NNE 9 13 5 7 1018.3 1017.5 0.0
01/08:30am 17.1 16.7 12.4 74 2.6 N 6 13 3 7 1018.3 1017.5 0.0
01/08:00am 15.2 15.3 11.4 78 2.1 WNW 2 6 1 3 1018.4 1017.6 0.0
01/07:30am 13.7 12.7 11.0 84 1.4 SW 7 9 4 5 1018.4 1017.6 0.0
01/07:00am 12.4 12.5 11.6 95 0.4 WNW 2 6 1 3 1017.9 1017.1 0.0
01/06:30am 10.0 10.0 9.7 98 0.2 CALM 0 0 0 0 1017.6 1016.8 0.0
01/06:00am 8.2 7.7 7.8 97 0.2 CALM 0 0 0 0 1017.4 1016.6 0.0
01/05:30am 7.9 6.8 7.1 95 0.4 W 2 6 1 3 1017.1 1016.3 0.0
01/05:00am 7.8 7.1 7.1 95 0.3 CALM 0 0 0 0 1016.8 1016.1 0.0
01/04:30am 8.5 8.0 7.9 96 0.3 CALM 0 0 0 0 1016.4 1015.6 0.0
01/04:00am 8.4 6.8 7.8 96 0.3 W 6 9 3 5 1016.5 1015.7 0.0
01/03:30am 7.9 5.8 6.8 93 0.5 WNW 7 9 4 5 1016.4 1015.6 0.0
01/03:00am 8.1 6.2 6.9 92 0.6 WNW 6 6 3 3 1016.5 1015.7 0.0
01/02:30am 9.7 8.1 8.1 90 0.8 N 6 7 3 4 1016.4 1015.6 0.0
01/02:00am 10.3 8.3 8.7 90 0.8 N 9 13 5 7 1016.6 1015.9 0.0
01/01:30am 10.9 8.8 8.3 84 1.3 SW 9 9 5 5 1017.1 1016.3 0.0
01/01:00am 12.1 11.6 8.0 76 2.0 CALM 0 0 0 0 1017.5 1016.7 0.0
01/12:30am 12.6 12.3 8.5 76 2.1 CALM 0 0 0 0 1017.6 1016.8 0.0
01/12:00am 11.6 10.4 8.1 79 1.7 S 4 7 2 4 1017.8 1017.0 0.0
 
Date/Time
EST
Temp
°C
App
Temp
°C
Dew
Point
°C
Rel
Hum
%
Delta-T
°C
Wind Press
QNH
hPa
Press
MSL
hPa
Rain since
9am
mm
Dir  Spd
km/h
Gust
km/h
Spd
kts
Gust
kts
30/11:30pm 12.7 11.0 8.2 74 2.3 SSW 7 9 4 5 1017.9 1017.1 0.0
30/11:00pm 13.6 12.0 8.7 72 2.5 SSW 7 9 4 5 1018.1 1017.3 0.0
30/10:30pm 13.6 11.7 8.9 73 2.4 S 9 9 5 5 1018.2 1017.4 0.0
30/10:00pm 15.0 13.1 9.1 68 3.1 S 9 9 5 5 1018.3 1017.5 0.0
30/09:30pm 15.2 12.9 9.1 67 3.2 SSW 11 13 6 7 1018.2 1017.4 0.0
30/09:00pm 16.7 13.9 8.7 59 4.2 S 13 15 7 8 1018.2 1017.4 0.0
30/08:30pm 17.0 14.4 9.2 60 4.1 S 13 17 7 9 1018.2 1017.4 0.0
30/08:00pm 16.4 14.6 9.6 64 3.6 SSE 9 11 5 6 1018.1 1017.3 0.0
30/07:30pm 18.1 15.6 9.7 58 4.5 S 13 15 7 8 1017.7 1016.9 0.0
30/07:00pm 18.6 16.5 9.9 57 4.7 SSW 11 13 6 7 1017.7 1016.9 0.0
30/06:30pm 19.2 17.1 9.9 55 5.0 S 11 13 6 7 1017.4 1016.6 0.0
30/06:00pm 20.8 18.6 9.4 48 6.2 S 11 13 6 7 1017.2 1016.4 0.0
30/05:30pm 22.7 19.7 9.1 42 7.4 SSE 15 22 8 12 1016.6 1015.9 0.0
30/05:00pm 23.5 19.2 8.0 37 8.3 SSE 20 26 11 14 1016.5 1015.7 0.0
30/04:30pm 24.4 20.7 9.6 39 8.2 S 19 28 10 15 1016.5 1015.7 0.0
30/04:00pm 24.3 20.4 8.7 37 8.5 SSW 19 26 10 14 1016.4 1015.6 0.0
30/03:30pm 23.5 19.5 8.4 38 8.1 S 19 24 10 13 1016.4 1015.6 0.0
30/03:00pm 24.4 20.5 8.8 37 8.5 S 19 28 10 15 1016.6 1015.9 0.0
30/02:30pm 24.2 20.0 8.2 36 8.6 SSE 20 30 11 16 1016.8 1016.1 0.0
30/02:00pm 23.6 19.9 9.6 41 7.7 S 19 28 10 15 1017.3 1016.5 0.0
30/01:30pm 24.1 20.7 10.4 42 7.7 SSE 19 30 10 16 1017.9 1017.1 0.0
30/01:00pm 23.8 20.0 9.0 39 8.1 S 19 28 10 15 1018.4 1017.6 0.0
30/12:30pm 23.2 20.0 9.9 43 7.4 S 17 30 9 16 1018.9 1018.1 0.0
30/12:00pm 23.3 20.8 11.0 46 6.9 SSE 15 24 8 13 1019.6 1018.9 0.0
30/11:30am 22.5 19.4 9.0 42 7.3 S 15 24 8 13 1019.8 1019.1 0.0
30/11:00am 22.1 19.7 9.9 46 6.7 SSE 13 24 7 13 1020.4 1019.7 0.0
30/10:30am 21.3 18.8 11.1 52 5.7 S 15 22 8 12 1020.9 1020.1 0.0
30/10:00am 20.7 18.4 10.5 52 5.6 SSE 13 28 7 15 1021.3 1020.5 0.0
30/09:30am 19.7 18.6 10.7 56 5.0 SE 7 13 4 7 1021.3 1020.5 0.0
30/09:00am 18.4 16.9 10.5 60 4.3 S 9 13 5 7 1021.5 1020.7 0.0

Other formats

Comma delimited format used in spreadsheet applications
http://www.bom.gov.au/fwo/IDQ60801/IDQ60801.94515.axf

JavaScript Object Notation format (JSON) in row-major order
http://www.bom.gov.au/fwo/IDQ60801/IDQ60801.94515.json

Data quality

Most of these data are generated automatically and are frequently updated. Quality checks on data are not normally performed. It is possible for incorrect values to appear. Refer to information at About Latest Weather Observations and please check the disclaimer before using these data.